createdAt,value
2023-03-23T15:57:58.056Z,44.89
2023-03-23T15:59:01.344Z,44.19
2023-03-23T16:00:04.788Z,44.84
2023-03-23T16:01:15.406Z,45.19
2023-03-23T16:02:21.721Z,45.09
2023-03-23T16:03:28.886Z,45.28
2023-03-23T16:04:32.489Z,45.34
2023-03-23T16:05:36.216Z,45.27
2023-03-23T16:06:39.422Z,45.49
2023-03-23T16:07:42.012Z,45.84
2023-03-23T16:08:44.325Z,45.50
2023-03-23T16:09:49.573Z,45.72
2023-03-23T16:10:52.350Z,45.97
2023-03-23T16:11:55.698Z,46.36
2023-03-23T16:12:58.023Z,46.40
2023-03-23T16:14:01.410Z,46.78
2023-03-23T16:15:04.803Z,46.52
2023-03-23T16:16:20.451Z,46.56
2023-03-23T16:17:22.912Z,46.61
2023-03-23T16:18:25.385Z,46.73
2023-03-23T16:19:28.922Z,46.50
2023-03-23T16:20:33.712Z,46.88
2023-03-23T16:21:36.680Z,46.83
2023-03-23T16:22:40.782Z,46.72
2023-03-23T16:23:45.463Z,46.91
2023-03-23T16:24:47.947Z,47.49
2023-03-23T16:25:50.914Z,46.89
2023-03-23T16:26:53.352Z,47.41
2023-03-23T16:27:57.186Z,47.81
2023-03-23T16:29:12.694Z,47.35
2023-03-23T16:30:25.965Z,47.40
2023-03-23T16:31:28.567Z,47.56
2023-03-23T16:32:30.861Z,47.53
2023-03-23T16:33:33.486Z,47.43
2023-03-23T16:34:36.501Z,47.69
2023-03-23T16:35:39.248Z,47.69
2023-03-23T16:36:42.265Z,48.26
2023-03-23T16:37:50.536Z,48.06
2023-03-23T16:38:54.666Z,47.70
2023-03-23T16:39:57.684Z,47.92
2023-03-23T16:41:00.159Z,47.86
2023-03-23T16:42:03.940Z,47.68
2023-03-23T16:43:09.309Z,48.30
2023-03-23T16:44:11.431Z,48.00
2023-03-23T16:45:15.525Z,48.52
2023-03-23T16:46:18.832Z,47.92
2023-03-23T16:47:24.498Z,47.89
2023-03-23T16:48:27.246Z,48.13
2023-03-23T16:49:29.793Z,48.14
2023-03-23T16:50:33.293Z,47.94
2023-03-23T16:51:36.658Z,48.08
2023-03-23T16:52:46.204Z,48.21
2023-03-23T16:53:46.466Z,48.24
2023-03-23T16:54:49.688Z,48.20
2023-03-23T16:55:52.516Z,48.13
2023-03-23T16:56:55.166Z,48.14
2023-03-23T16:58:12.896Z,48.34
2023-03-23T16:59:02.477Z,48.31
2023-03-23T17:00:08.395Z,48.46
2023-03-23T17:01:11.139Z,48.27
2023-03-23T17:02:13.740Z,48.09
2023-03-23T17:03:18.993Z,48.22
2023-03-23T17:04:21.186Z,48.38
2023-03-23T17:05:27.177Z,48.52
2023-03-23T17:06:30.706Z,48.74
2023-03-23T17:07:32.932Z,49.34
2023-03-23T17:08:36.386Z,49.01
2023-03-23T17:09:41.058Z,48.99
2023-03-23T17:10:44.733Z,49.41
2023-03-23T17:11:47.500Z,49.64
2023-03-23T17:12:49.786Z,49.68
2023-03-23T17:13:52.346Z,49.89
2023-03-23T17:14:54.628Z,48.83
2023-03-23T17:15:56.853Z,49.05
2023-03-23T17:17:00.243Z,49.28
2023-03-23T17:18:03.817Z,49.45
2023-03-23T17:19:07.255Z,49.61
2023-03-23T17:20:11.463Z,49.46
2023-03-23T17:21:13.830Z,50.13
2023-03-23T17:22:17.327Z,50.54
2023-03-23T17:23:20.267Z,49.95
2023-03-23T17:24:22.759Z,49.52
2023-03-23T17:25:25.884Z,49.53
2023-03-23T17:26:28.179Z,50.41
2023-03-23T17:27:30.607Z,50.57
2023-03-23T17:28:33.921Z,49.88
2023-03-23T17:29:36.332Z,50.07
2023-03-23T17:30:45.358Z,49.90
2023-03-23T17:31:49.174Z,49.90
2023-03-23T17:32:54.067Z,49.86
2023-03-23T17:33:57.833Z,49.33
2023-03-23T17:35:01.283Z,49.47
2023-03-23T17:36:04.043Z,50.08
2023-03-23T17:37:07.267Z,48.49
2023-03-23T17:38:10.092Z,49.34
2023-03-23T17:39:13.308Z,48.67
2023-03-23T17:40:20.112Z,49.15
2023-03-23T17:41:24.078Z,48.47
2023-03-23T17:42:26.596Z,48.71
2023-03-23T17:43:29.452Z,47.63
2023-03-23T17:44:31.974Z,49.29
2023-03-23T17:45:35.518Z,49.42
2023-03-23T17:46:38.302Z,48.18
2023-03-23T17:47:40.750Z,47.34
2023-03-23T17:48:46.231Z,47.52
2023-03-23T17:49:48.701Z,48.09
2023-03-23T17:50:54.862Z,48.17
2023-03-23T17:51:58.585Z,48.15
2023-03-23T17:53:02.072Z,47.79
2023-03-23T17:54:05.325Z,48.15
2023-03-23T17:55:08.544Z,48.82
2023-03-23T17:56:13.281Z,48.09
2023-03-23T17:57:17.206Z,47.92
2023-03-23T17:58:20.853Z,48.49
2023-03-23T17:59:26.753Z,48.64
2023-03-23T18:00:29.347Z,48.17
2023-03-23T18:01:34.006Z,48.08
2023-03-23T18:02:37.740Z,47.99
2023-03-23T18:04:52.800Z,48.27
2023-03-23T18:06:01.595Z,48.39
2023-03-23T18:07:04.080Z,48.66
2023-03-23T18:08:07.889Z,48.64
2023-03-23T18:09:10.527Z,48.56
2023-03-23T18:10:15.678Z,48.56
2023-03-23T18:11:18.598Z,49.01
2023-03-23T18:12:20.996Z,48.75
2023-03-23T18:13:26.119Z,49.05
2023-03-23T18:14:28.526Z,48.33
2023-03-23T18:15:33.023Z,49.08
2023-03-23T18:16:36.363Z,48.98
2023-03-23T18:17:39.802Z,49.18
2023-03-23T18:18:42.615Z,48.99
2023-03-23T18:19:47.098Z,49.34
2023-03-23T18:21:00.521Z,49.55
2023-03-23T18:22:02.753Z,49.21
2023-03-23T18:23:06.730Z,49.14
2023-03-23T18:24:10.338Z,48.99
2023-03-23T18:25:13.130Z,49.08
2023-03-23T18:26:17.884Z,49.06
2023-03-23T18:27:20.533Z,49.40
2023-03-23T18:28:24.902Z,49.47
2023-03-23T18:29:27.237Z,49.35
2023-03-23T18:30:29.997Z,49.72
2023-03-23T18:31:32.395Z,49.92
2023-03-23T18:32:40.066Z,50.07
2023-03-23T18:33:46.652Z,49.52
2023-03-23T18:34:49.946Z,49.82
2023-03-23T18:36:00.177Z,49.78
2023-03-23T18:37:04.369Z,50.01
2023-03-23T18:38:06.770Z,49.60
2023-03-23T18:39:14.454Z,49.82
2023-03-23T18:40:19.024Z,49.90
2023-03-23T18:41:21.370Z,50.05
2023-03-23T18:42:24.242Z,50.05
2023-03-23T18:43:27.637Z,49.72
2023-03-23T18:44:30.358Z,49.88
2023-03-23T18:45:33.127Z,50.33
2023-03-23T18:46:37.743Z,49.73
2023-03-23T18:47:40.875Z,50.54
2023-03-23T18:48:43.288Z,50.80
2023-03-23T18:49:47.955Z,51.41
2023-03-23T18:50:53.832Z,51.05
2023-03-23T18:51:57.685Z,51.08
2023-03-23T18:53:01.151Z,50.92
2023-03-23T18:54:04.447Z,51.24
2023-03-23T18:55:07.966Z,51.39
2023-03-23T18:56:16.154Z,52.37
2023-03-23T18:57:20.876Z,53.40
2023-03-23T18:58:23.254Z,52.29
2023-03-23T18:59:27.824Z,52.23
2023-03-23T19:00:30.322Z,52.66
2023-03-23T19:01:33.464Z,51.67
2023-03-23T19:02:38.337Z,52.50
2023-03-23T19:03:42.087Z,52.39
2023-03-23T19:06:01.309Z,51.36
2023-03-23T19:07:03.907Z,51.83
2023-03-23T19:08:07.650Z,55.17
2023-03-23T19:09:10.038Z,53.60
2023-03-23T19:10:13.592Z,52.89
2023-03-23T19:11:17.237Z,54.56
2023-03-23T19:12:22.414Z,52.68
2023-03-23T19:13:25.831Z,53.99
2023-03-23T19:14:28.549Z,53.90
2023-03-23T19:15:30.993Z,53.34
2023-03-23T19:16:35.673Z,52.73
2023-03-23T19:17:40.257Z,53.69
2023-03-23T19:18:43.760Z,53.48
2023-03-23T19:19:46.174Z,52.99
2023-03-23T19:21:55.930Z,52.88
2023-03-23T19:22:59.300Z,55.87
2023-03-23T19:24:02.372Z,55.87
2023-03-23T19:25:07.229Z,53.10
2023-03-23T19:26:13.669Z,55.49
2023-03-23T19:27:17.358Z,54.64
2023-03-23T19:29:27.362Z,55.98
2023-03-23T19:30:31.344Z,55.07
2023-03-23T19:31:35.026Z,54.41
2023-03-23T19:32:38.226Z,54.04
2023-03-23T19:33:40.483Z,53.52
2023-03-23T19:34:43.482Z,54.13
2023-03-23T19:35:50.637Z,54.56
2023-03-23T19:37:03.314Z,52.86
2023-03-23T19:38:00.107Z,53.11
2023-03-23T19:39:04.300Z,53.53
2023-03-23T19:40:24.745Z,55.08
2023-03-23T19:41:14.060Z,54.64
2023-03-23T19:42:19.614Z,53.23
2023-03-23T19:43:22.619Z,53.40
2023-03-23T19:44:25.779Z,53.28
2023-03-23T19:45:28.807Z,52.92
2023-03-23T19:46:32.875Z,54.09
2023-03-23T19:47:35.741Z,54.16
2023-03-23T19:48:39.984Z,53.94
2023-03-23T19:49:42.906Z,54.20
2023-03-23T19:50:49.212Z,55.04
2023-03-23T19:52:08.340Z,53.91
2023-03-23T19:52:59.538Z,54.27
2023-03-23T19:54:03.181Z,56.12
2023-03-23T19:55:06.863Z,55.82
2023-03-23T19:56:15.018Z,55.25
2023-03-23T19:57:17.376Z,53.79
2023-03-23T19:58:20.900Z,55.11
2023-03-23T19:59:23.980Z,54.24
2023-03-23T20:00:29.504Z,55.35
2023-03-23T20:01:32.185Z,53.50
2023-03-23T20:02:38.927Z,54.30
2023-03-23T20:03:42.433Z,53.53
2023-03-23T20:04:46.199Z,54.73
2023-03-23T20:05:49.507Z,54.00
2023-03-23T20:06:52.781Z,54.89
2023-03-23T20:07:55.462Z,53.94
2023-03-23T20:09:00.058Z,54.02
2023-03-23T20:10:02.471Z,54.18
2023-03-23T20:11:08.001Z,54.94
2023-03-23T20:12:10.293Z,54.46
2023-03-23T20:13:13.227Z,54.79
2023-03-23T20:14:16.044Z,54.87
2023-03-23T20:15:18.471Z,55.04
2023-03-23T20:16:21.856Z,54.68
2023-03-23T20:17:26.330Z,54.42
2023-03-23T20:18:29.884Z,54.45
2023-03-23T20:19:33.065Z,55.39
2023-03-23T20:20:35.702Z,56.05
2023-03-23T20:21:39.158Z,55.26
2023-03-23T20:22:43.239Z,56.05
2023-03-23T20:23:48.849Z,55.64
2023-03-23T20:24:51.962Z,55.19
2023-03-23T20:26:00.493Z,54.22
2023-03-23T20:27:03.363Z,54.63
2023-03-23T20:28:06.216Z,54.88
2023-03-23T20:29:09.291Z,54.88
2023-03-23T20:30:13.702Z,55.75
2023-03-23T20:31:24.270Z,56.24
2023-03-23T20:32:29.858Z,54.94
2023-03-23T20:33:34.229Z,54.45
2023-03-23T20:34:38.513Z,54.31
2023-03-23T20:35:40.805Z,55.10
2023-03-23T20:36:45.885Z,55.04
2023-03-23T20:37:51.049Z,54.56
2023-03-23T20:38:53.390Z,55.49
2023-03-23T20:39:55.732Z,54.51
2023-03-23T20:40:59.106Z,54.79
2023-03-23T20:42:05.712Z,55.03
2023-03-23T20:43:10.722Z,55.06
2023-03-23T20:44:14.905Z,54.38
2023-03-23T20:45:19.540Z,54.84
2023-03-23T20:46:22.956Z,54.62
2023-03-23T20:47:27.159Z,55.72
2023-03-23T20:48:34.115Z,56.67
2023-03-23T20:49:37.823Z,55.37
2023-03-23T20:50:41.876Z,54.97
2023-03-23T20:51:46.736Z,55.11
2023-03-23T20:52:50.251Z,55.67
2023-03-23T20:53:52.653Z,55.39
2023-03-23T20:54:55.714Z,56.38
2023-03-23T20:56:01.344Z,55.57
2023-03-23T20:57:04.126Z,55.51
2023-03-23T20:58:07.942Z,55.63
2023-03-23T20:59:10.612Z,55.61
2023-03-23T21:00:17.312Z,55.64
2023-03-23T21:01:22.021Z,55.93
2023-03-23T21:02:25.965Z,55.52
2023-03-23T21:03:31.752Z,55.70
2023-03-23T21:04:36.092Z,55.56
2023-03-23T21:05:42.169Z,55.61
2023-03-23T21:06:46.367Z,55.61
2023-03-23T21:07:50.334Z,55.94
2023-03-23T21:08:52.842Z,56.06
2023-03-23T21:09:56.034Z,55.69
2023-03-23T21:10:59.184Z,55.83
2023-03-23T21:12:06.860Z,55.76
2023-03-23T21:13:11.821Z,55.19
2023-03-23T21:14:15.985Z,56.09
2023-03-23T21:15:19.365Z,55.49
2023-03-23T21:16:24.136Z,55.11
2023-03-23T21:17:27.059Z,55.23
2023-03-23T21:18:31.678Z,55.58
2023-03-23T21:19:34.764Z,55.50
2023-03-23T21:20:38.073Z,55.24
2023-03-23T21:21:55.923Z,55.46
2023-03-23T21:22:47.683Z,55.60
2023-03-23T21:23:52.049Z,55.79
2023-03-23T21:24:54.679Z,55.43
2023-03-23T21:26:02.972Z,55.41
2023-03-23T21:27:06.962Z,55.01
2023-03-23T21:28:10.398Z,55.54
2023-03-23T21:29:15.674Z,55.29
2023-03-23T21:30:20.392Z,55.58
2023-03-23T21:31:22.729Z,56.30
2023-03-23T21:32:26.979Z,55.72
2023-03-23T21:33:29.170Z,55.95
2023-03-23T21:34:31.397Z,55.76
2023-03-23T21:35:34.882Z,56.76
2023-03-23T21:36:37.911Z,55.43
2023-03-23T21:37:42.144Z,56.02
2023-03-23T21:38:45.552Z,55.52
2023-03-23T21:39:47.858Z,55.46
2023-03-23T21:40:50.306Z,55.90
2023-03-23T21:41:53.021Z,55.85
2023-03-23T21:42:55.464Z,55.77
2023-03-23T21:43:58.087Z,55.75
2023-03-23T21:45:02.143Z,56.00
2023-03-23T21:46:08.191Z,56.03
2023-03-23T21:47:12.485Z,55.94
2023-03-23T21:48:15.914Z,55.84
2023-03-23T21:49:18.479Z,55.83
2023-03-23T21:50:22.700Z,56.25
2023-03-23T21:51:28.169Z,56.03
2023-03-23T21:52:31.840Z,56.47
2023-03-23T21:53:36.282Z,56.33
2023-03-23T21:54:40.574Z,56.33
2023-03-23T21:55:45.813Z,56.00
2023-03-23T21:56:48.455Z,56.43
2023-03-23T21:57:52.071Z,56.63
2023-03-23T21:58:56.694Z,57.25
2023-03-23T21:59:58.919Z,56.97
2023-03-23T22:01:02.890Z,56.45
2023-03-23T22:02:06.892Z,56.58
2023-03-23T22:03:09.323Z,56.21
2023-03-23T22:04:11.762Z,55.87
2023-03-23T22:05:15.295Z,56.21
2023-03-23T22:06:22.749Z,56.86
2023-03-23T22:07:28.763Z,56.86
2023-03-23T22:08:33.540Z,56.13
2023-03-23T22:09:36.917Z,57.02
2023-03-23T22:11:00.360Z,56.44
2023-03-23T22:11:49.290Z,56.51
2023-03-23T22:12:53.648Z,56.61
2023-03-23T22:13:59.176Z,56.52
2023-03-23T22:15:02.842Z,56.94
2023-03-23T22:16:09.194Z,56.84
2023-03-23T22:17:12.728Z,56.86
2023-03-23T22:18:16.355Z,56.84
2023-03-23T22:19:20.083Z,56.72
2023-03-23T22:20:22.497Z,56.54
2023-03-23T22:21:26.959Z,56.66
2023-03-23T22:22:29.375Z,56.82
2023-03-23T22:23:31.733Z,56.91
2023-03-23T22:24:35.085Z,58.10
2023-03-23T22:25:37.971Z,57.25
2023-03-23T22:26:41.234Z,56.47
2023-03-23T22:27:45.958Z,56.68
2023-03-23T22:28:50.854Z,57.29
2023-03-23T22:29:53.317Z,56.52
2023-03-23T22:31:03.450Z,57.05
2023-03-23T22:32:06.218Z,57.02
2023-03-23T22:33:08.572Z,57.25
2023-03-23T22:34:11.897Z,57.47
2023-03-23T22:35:14.291Z,56.91
2023-03-23T22:36:18.207Z,56.67
2023-03-23T22:37:21.252Z,57.56
2023-03-23T22:38:24.423Z,56.90
2023-03-23T22:39:26.864Z,56.65
2023-03-23T22:40:31.867Z,57.26
2023-03-23T22:41:37.373Z,56.39
2023-03-23T22:42:40.601Z,56.17
2023-03-23T22:43:43.212Z,56.17
2023-03-23T22:44:46.787Z,56.61
2023-03-23T22:45:54.328Z,56.83
2023-03-23T22:46:56.877Z,57.12
2023-03-23T22:47:59.270Z,57.00
2023-03-23T22:49:01.710Z,56.81
2023-03-23T22:50:09.750Z,57.00
2023-03-23T22:51:14.522Z,57.09
2023-03-23T22:52:17.693Z,57.45
2023-03-23T22:53:21.398Z,57.28
2023-03-23T22:54:23.983Z,57.07
2023-03-23T22:55:26.574Z,57.80
2023-03-23T22:56:31.777Z,57.28
2023-03-23T22:57:35.409Z,57.11
2023-03-23T22:58:37.965Z,57.67
2023-03-23T22:59:40.347Z,57.44
2023-03-23T23:00:52.698Z,57.38
2023-03-23T23:01:55.632Z,57.33
2023-03-23T23:02:58.072Z,57.37
2023-03-23T23:04:02.160Z,57.38
2023-03-23T23:05:05.436Z,57.48
2023-03-23T23:06:10.774Z,57.28
2023-03-23T23:07:13.885Z,57.06
2023-03-23T23:08:18.381Z,57.55
2023-03-23T23:09:21.614Z,57.44
2023-03-23T23:10:24.045Z,57.46
2023-03-23T23:11:26.511Z,57.18
2023-03-23T23:12:31.183Z,57.60
2023-03-23T23:13:33.722Z,57.51
2023-03-23T23:14:37.072Z,57.33
2023-03-23T23:15:45.420Z,57.74
2023-03-23T23:16:48.171Z,57.58
2023-03-23T23:17:50.758Z,57.62
2023-03-23T23:18:54.014Z,57.30
2023-03-23T23:19:56.931Z,57.07
2023-03-23T23:21:01.165Z,57.17
2023-03-23T23:22:16.140Z,57.39
2023-03-23T23:23:10.823Z,57.67
2023-03-23T23:24:13.231Z,57.22
2023-03-23T23:25:15.930Z,57.98
2023-03-23T23:26:19.361Z,57.54
2023-03-23T23:27:21.894Z,57.73
2023-03-23T23:28:24.474Z,57.59
2023-03-23T23:29:27.947Z,58.26
2023-03-23T23:30:31.605Z,57.36
2023-03-23T23:31:34.365Z,57.15
2023-03-23T23:32:37.161Z,57.27
2023-03-23T23:33:39.883Z,56.78
2023-03-23T23:34:42.269Z,57.07
2023-03-23T23:35:44.994Z,57.82
2023-03-23T23:36:48.671Z,57.54
2023-03-23T23:37:51.196Z,57.68
2023-03-23T23:38:53.836Z,57.72
2023-03-23T23:39:56.066Z,57.53
2023-03-23T23:40:58.822Z,58.15
2023-03-23T23:42:01.092Z,57.29
2023-03-23T23:43:04.150Z,57.60
2023-03-23T23:44:06.863Z,57.09
2023-03-23T23:45:10.331Z,57.66
2023-03-23T23:46:13.404Z,56.85
2023-03-23T23:47:16.439Z,56.72
2023-03-23T23:48:18.805Z,56.93
2023-03-23T23:49:22.461Z,57.06
2023-03-23T23:50:25.815Z,56.87
2023-03-23T23:51:29.555Z,56.87
2023-03-23T23:52:31.788Z,57.00
2023-03-23T23:53:34.027Z,56.93
2023-03-23T23:54:37.097Z,57.03
2023-03-23T23:55:43.657Z,56.97
2023-03-23T23:56:53.261Z,57.63
2023-03-23T23:57:56.572Z,58.03
2023-03-23T23:58:58.973Z,57.36
